Time;durP1;ratioP1;P1;durP2;ratioP2;P2;SDS_P1;SDS_P2;PMS_P1;PMS_P2;Temp;Humidity;BMP_temperature;BMP_pressure;BME280_temperature;BME280_humidity;BME280_pressure;Samples;Min_cycle;Max_cycle;Signal;HPM_P1;HPM_P2
2023/12/26 00:00:40;;;;;;;14.05;3.10;;;12.40;99.40;;;;;;4132736;28;20134;-60
2023/12/26 00:02:44;;;;;;;22.20;4.40;;;12.30;99.20;;;;;;4133298;28;20046;-64
2023/12/26 00:04:46;;;;;;;22.17;5.25;;;12.30;99.40;;;;;;4133244;28;20386;-65
2023/12/26 00:06:48;;;;;;;15.95;3.58;;;12.30;99.20;;;;;;4133501;28;20066;-60
2023/12/26 00:08:50;;;;;;;17.50;4.20;;;12.30;99.10;;;;;;4133146;28;20510;-60
2023/12/26 00:10:52;;;;;;;22.73;4.05;;;12.30;99.10;;;;;;4132936;28;20453;-61
2023/12/26 00:12:55;;;;;;;17.92;3.65;;;12.30;99.20;;;;;;4132601;28;20050;-60
2023/12/26 00:14:57;;;;;;;16.98;3.95;;;12.30;98.90;;;;;;4132343;28;20050;-61
2023/12/26 00:16:59;;;;;;;16.65;3.70;;;12.30;99.00;;;;;;4133189;28;20100;-62
2023/12/26 00:19:03;;;;;;;16.20;4.13;;;12.30;98.90;;;;;;4132977;28;20405;-60
2023/12/26 00:21:05;;;;;;;19.55;4.10;;;12.30;99.00;;;;;;4132722;28;20061;-61
2023/12/26 00:23:07;;;;;;;16.88;3.70;;;12.30;99.00;;;;;;4132276;28;20050;-60
2023/12/26 00:25:09;;;;;;;19.67;3.30;;;12.30;99.00;;;;;;4114861;28;20509;-65
2023/12/26 00:27:12;;;;;;;21.40;4.35;;;12.40;99.00;;;;;;4132118;28;20117;-60
2023/12/26 00:29:14;;;;;;;16.20;3.42;;;12.30;99.10;;;;;;4131848;28;20050;-60
2023/12/26 00:31:16;;;;;;;17.15;4.15;;;12.30;99.20;;;;;;4131468;28;20047;-66
2023/12/26 00:33:18;;;;;;;19.42;3.47;;;12.30;99.30;;;;;;4131597;28;20064;-61
2023/12/26 00:35:21;;;;;;;20.05;3.70;;;12.40;99.10;;;;;;4131541;28;20101;-64
2023/12/26 00:37:24;;;;;;;14.73;3.10;;;12.40;99.20;;;;;;4131827;28;20073;-60
2023/12/26 00:39:26;;;;;;;19.80;4.20;;;12.40;99.20;;;;;;4131653;28;20074;-60
2023/12/26 00:41:28;;;;;;;20.48;3.67;;;12.30;99.20;;;;;;4132046;28;20057;-60
2023/12/26 00:43:30;;;;;;;17.08;3.95;;;12.40;99.20;;;;;;4132517;28;20046;-64
2023/12/26 00:45:32;;;;;;;17.30;3.00;;;12.30;99.20;;;;;;4132657;28;20457;-61
2023/12/26 00:47:34;;;;;;;13.43;4.15;;;12.30;99.30;;;;;;4132636;28;20134;-61
2023/12/26 00:49:36;;;;;;;19.73;3.72;;;12.30;99.30;;;;;;4132538;28;20042;-67
2023/12/26 00:51:41;;;;;;;18.00;3.63;;;12.30;99.30;;;;;;4132632;28;20047;-60
2023/12/26 00:53:43;;;;;;;21.00;4.00;;;12.30;99.40;;;;;;4132672;28;20117;-60
2023/12/26 00:55:45;;;;;;;16.23;3.13;;;12.20;99.30;;;;;;4132484;28;20058;-60
2023/12/26 00:57:47;;;;;;;15.60;3.92;;;12.20;99.10;;;;;;4132453;28;20081;-60
2023/12/26 00:59:50;;;;;;;20.52;3.78;;;12.20;99.20;;;;;;4132059;28;20054;-60
2023/12/26 01:01:52;;;;;;;19.60;3.92;;;12.10;99.10;;;;;;4131459;28;20050;-61
2023/12/26 01:03:54;;;;;;;16.65;3.70;;;12.10;99.30;;;;;;4131783;28;20046;-60
2023/12/26 01:05:57;;;;;;;18.45;3.85;;;12.10;99.30;;;;;;4131376;28;20081;-59
2023/12/26 01:08:00;;;;;;;19.55;3.92;;;12.10;99.30;;;;;;4131363;28;20051;-60
2023/12/26 01:10:06;;;;;;;25.83;3.83;;;12.10;99.40;;;;;;4131217;28;20077;-61
2023/12/26 01:12:08;;;;;;;14.23;3.22;;;12.00;99.40;;;;;;4131131;28;20050;-60
2023/12/26 01:14:11;;;;;;;19.33;3.97;;;12.00;99.40;;;;;;4113587;28;20047;-60
2023/12/26 01:16:13;;;;;;;19.33;3.17;;;12.00;99.40;;;;;;4130845;28;20046;-60
2023/12/26 01:18:16;;;;;;;17.85;3.38;;;12.00;99.40;;;;;;4131504;28;20050;-61
2023/12/26 01:20:18;;;;;;;21.15;3.78;;;12.00;99.40;;;;;;4113703;28;20077;-60
2023/12/26 01:22:20;;;;;;;18.40;3.92;;;12.00;99.50;;;;;;4131132;28;20348;-60
2023/12/26 01:24:24;;;;;;;19.70;3.10;;;12.00;99.60;;;;;;4131112;28;20129;-60
2023/12/26 01:26:26;;;;;;;19.95;3.88;;;12.00;99.70;;;;;;4131125;28;20077;-64
2023/12/26 01:28:28;;;;;;;20.42;4.25;;;12.00;99.60;;;;;;4131317;28;20042;-61
2023/12/26 01:30:30;;;;;;;17.27;3.65;;;12.00;99.40;;;;;;4131878;28;20457;-63
2023/12/26 01:32:32;;;;;;;16.40;3.65;;;12.10;99.50;;;;;;4134286;28;20051;-61
2023/12/26 01:34:35;;;;;;;18.52;4.03;;;12.10;99.60;;;;;;4133875;28;20050;-60
2023/12/26 01:36:37;;;;;;;18.73;3.38;;;12.00;99.60;;;;;;4133867;28;20428;-60
2023/12/26 01:38:40;;;;;;;18.23;3.55;;;12.10;99.50;;;;;;4116640;28;20046;-60
2023/12/26 01:40:44;;;;;;;21.42;3.83;;;12.10;99.60;;;;;;4134150;28;20504;-60
2023/12/26 01:42:47;;;;;;;18.15;4.15;;;12.10;99.60;;;;;;4133895;28;20053;-61
2023/12/26 01:44:49;;;;;;;16.98;3.88;;;12.10;99.80;;;;;;4134086;28;20046;-60
2023/12/26 01:46:52;;;;;;;14.75;3.75;;;12.10;99.70;;;;;;4116839;28;20130;-60
2023/12/26 01:48:55;;;;;;;20.02;3.78;;;12.10;99.70;;;;;;4134020;28;20462;-60
2023/12/26 01:51:00;;;;;;;17.38;4.30;;;12.10;99.80;;;;;;4133870;28;20073;-61
2023/12/26 01:53:03;;;;;;;20.92;4.47;;;12.10;99.90;;;;;;4133545;28;20050;-60
2023/12/26 01:55:06;;;;;;;22.23;4.03;;;12.10;99.90;;;;;;4133588;28;20133;-60
2023/12/26 01:57:10;;;;;;;19.08;4.28;;;12.10;99.90;;;;;;4133349;28;20050;-60
2023/12/26 01:59:13;;;;;;;22.90;4.72;;;12.10;99.90;;;;;;4133634;28;20046;-61
2023/12/26 02:01:16;;;;;;;20.63;4.25;;;12.20;99.90;;;;;;4133632;28;20046;-61
2023/12/26 02:03:18;;;;;;;22.80;3.70;;;12.10;99.90;;;;;;4133596;28;20042;-61
2023/12/26 02:05:21;;;;;;;20.05;3.70;;;12.10;99.90;;;;;;4133169;28;20130;-61
2023/12/26 02:07:23;;;;;;;14.23;3.22;;;12.20;99.90;;;;;;4133518;28;20043;-60
2023/12/26 02:09:25;;;;;;;20.33;4.28;;;12.10;99.90;;;;;;4133200;28;20552;-65
2023/12/26 02:11:27;;;;;;;18.60;3.60;;;12.10;99.90;;;;;;4133253;28;20046;-60
2023/12/26 02:13:31;;;;;;;20.67;3.85;;;12.10;99.90;;;;;;4123774;28;20557;-61
2023/12/26 02:15:33;;;;;;;19.60;3.25;;;12.10;99.90;;;;;;4117424;28;20068;-61
2023/12/26 02:17:36;;;;;;;18.05;4.28;;;12.10;99.90;;;;;;4117459;28;20129;-60
2023/12/26 02:19:42;;;;;;;19.67;3.55;;;12.10;99.90;;;;;;4116960;28;20042;-63
2023/12/26 02:21:44;;;;;;;16.23;3.15;;;12.10;99.90;;;;;;4117185;28;20097;-60
2023/12/26 02:23:53;;;;;;;24.00;4.03;;;12.10;99.90;;;;;;4117287;28;20614;-60
2023/12/26 02:25:57;;;;;;;15.15;3.28;;;12.20;99.90;;;;;;4117190;28;20047;-60
2023/12/26 02:28:00;;;;;;;22.20;3.75;;;12.10;99.90;;;;;;4117060;28;20453;-59
2023/12/26 02:30:05;;;;;;;19.05;3.80;;;12.10;99.90;;;;;;4117156;28;20055;-60
2023/12/26 02:32:09;;;;;;;16.42;3.45;;;12.10;99.90;;;;;;4117081;28;20100;-60
2023/12/26 02:34:11;;;;;;;21.05;4.03;;;12.10;99.90;;;;;;4116987;28;20043;-60
2023/12/26 02:36:13;;;;;;;15.20;3.70;;;12.10;99.90;;;;;;4117099;28;20142;-60
2023/12/26 02:38:16;;;;;;;15.98;3.38;;;12.20;99.90;;;;;;4099941;28;20059;-60
2023/12/26 02:40:19;;;;;;;24.23;4.15;;;12.20;99.90;;;;;;4117069;28;20078;-60
2023/12/26 02:42:22;;;;;;;17.02;3.38;;;12.20;99.90;;;;;;4116264;28;20471;-60
2023/12/26 02:44:24;;;;;;;25.75;3.90;;;12.20;99.90;;;;;;4116634;28;20109;-59
2023/12/26 02:46:26;;;;;;;24.88;4.38;;;12.20;99.90;;;;;;4116800;28;20506;-60
2023/12/26 02:48:28;;;;;;;17.60;3.08;;;12.20;99.90;;;;;;4116731;28;20047;-59
2023/12/26 02:50:31;;;;;;;14.00;3.40;;;12.20;99.90;;;;;;4099571;28;20102;-59
2023/12/26 02:52:33;;;;;;;18.70;3.50;;;12.20;99.90;;;;;;4116778;28;20047;-60
2023/12/26 02:54:36;;;;;;;15.93;3.70;;;12.20;99.90;;;;;;4116797;28;20457;-61
2023/12/26 02:56:39;;;;;;;14.43;3.35;;;12.10;99.90;;;;;;4116166;28;20055;-60
2023/12/26 02:58:41;;;;;;;16.70;3.30;;;12.20;99.90;;;;;;4099517;29;20047;-60
2023/12/26 03:00:43;;;;;;;20.70;3.92;;;12.10;99.90;;;;;;4116578;28;20080;-60
2023/12/26 03:02:45;;;;;;;13.50;2.83;;;12.20;99.90;;;;;;4116718;28;20410;-61
2023/12/26 03:04:48;;;;;;;22.85;4.05;;;12.10;99.90;;;;;;4116605;28;20047;-60
2023/12/26 03:06:50;;;;;;;15.82;2.83;;;12.20;99.90;;;;;;4116746;28;20065;-60
2023/12/26 03:08:52;;;;;;;19.80;4.22;;;12.20;99.90;;;;;;4116331;28;20130;-59
2023/12/26 03:10:54;;;;;;;18.85;3.67;;;12.20;99.90;;;;;;4116023;28;20054;-60
2023/12/26 03:12:57;;;;;;;18.73;3.30;;;12.20;99.90;;;;;;4116439;28;20047;-61
2023/12/26 03:15:00;;;;;;;14.48;3.58;;;12.20;99.90;;;;;;4116488;28;20105;-60
2023/12/26 03:17:03;;;;;;;19.58;3.80;;;12.20;99.90;;;;;;4116697;28;20442;-60
2023/12/26 03:19:05;;;;;;;14.23;3.25;;;12.20;99.90;;;;;;4116147;28;20045;-60
2023/12/26 03:21:07;;;;;;;20.50;4.10;;;12.20;99.90;;;;;;4116389;28;20289;-60
2023/12/26 03:23:14;;;;;;;14.65;3.78;;;12.20;99.90;;;;;;4116108;28;20046;-60
2023/12/26 03:25:17;;;;;;;20.70;3.88;;;12.20;99.90;;;;;;4114607;28;20054;-60
2023/12/26 03:27:19;;;;;;;14.57;3.22;;;12.20;99.90;;;;;;4116001;28;20072;-61
2023/12/26 03:29:22;;;;;;;15.48;3.33;;;12.20;99.90;;;;;;4116445;28;20453;-60
2023/12/26 03:31:24;;;;;;;18.27;3.33;;;12.20;99.90;;;;;;4116110;28;20134;-60
2023/12/26 03:33:26;;;;;;;15.40;3.08;;;12.20;99.90;;;;;;4116536;28;20133;-60
2023/12/26 03:35:29;;;;;;;18.50;3.63;;;12.20;99.90;;;;;;4116338;28;20043;-61
2023/12/26 03:37:31;;;;;;;16.80;3.53;;;12.20;99.90;;;;;;4116405;28;20479;-60
2023/12/26 03:39:33;;;;;;;14.38;3.45;;;12.20;99.90;;;;;;4115865;28;20051;-60
2023/12/26 03:41:36;;;;;;;17.75;3.70;;;12.20;99.90;;;;;;4116095;28;20039;-61
2023/12/26 03:43:38;;;;;;;16.60;3.75;;;12.10;99.90;;;;;;4115865;28;20050;-60
2023/12/26 03:45:47;;;;;;;13.52;2.90;;;12.20;99.90;;;;;;4114723;28;20146;-60
2023/12/26 03:47:52;;;;;;;18.95;3.10;;;12.10;99.90;;;;;;4116078;28;20046;-60
2023/12/26 03:49:54;;;;;;;20.00;3.05;;;12.10;99.90;;;;;;4116071;28;20074;-60
2023/12/26 03:51:56;;;;;;;18.23;3.35;;;12.10;99.90;;;;;;4115848;28;20399;-60
2023/12/26 03:53:59;;;;;;;15.90;2.97;;;12.10;99.90;;;;;;4115583;28;20055;-60
2023/12/26 03:56:01;;;;;;;17.27;3.63;;;12.10;99.90;;;;;;4115109;28;20109;-61
2023/12/26 03:58:03;;;;;;;19.83;3.45;;;12.10;99.90;;;;;;4115981;28;20406;-60
2023/12/26 04:00:11;;;;;;;15.65;3.53;;;12.10;99.90;;;;;;4114544;28;20053;-60
2023/12/26 04:02:15;;;;;;;19.15;3.85;;;12.10;99.90;;;;;;4115569;28;20122;-60
2023/12/26 04:04:17;;;;;;;20.40;3.83;;;12.20;99.90;;;;;;4115529;28;20470;-60
2023/12/26 04:06:20;;;;;;;16.52;3.60;;;12.10;99.90;;;;;;4114572;28;20043;-61
2023/12/26 04:08:22;;;;;;;12.65;2.83;;;12.20;99.90;;;;;;4115161;28;20137;-60
2023/12/26 04:10:24;;;;;;;23.35;3.97;;;12.20;99.90;;;;;;4114109;28;20063;-60
2023/12/26 04:12:28;;;;;;;20.33;4.43;;;12.10;99.90;;;;;;4115629;28;20462;-61
2023/12/26 04:14:30;;;;;;;19.50;4.17;;;12.20;99.90;;;;;;4115791;28;20406;-60
2023/12/26 04:16:33;;;;;;;21.27;3.92;;;12.20;99.90;;;;;;4115812;28;20043;-61
2023/12/26 04:18:36;;;;;;;15.25;3.45;;;12.20;99.90;;;;;;4115636;28;20047;-60
2023/12/26 04:20:38;;;;;;;26.30;4.15;;;12.10;99.90;;;;;;4115875;28;20465;-64
2023/12/26 04:22:40;;;;;;;16.88;3.47;;;12.20;99.90;;;;;;4116407;28;20131;-61
2023/12/26 04:24:43;;;;;;;20.63;3.75;;;12.10;99.90;;;;;;4116548;28;20109;-61
2023/12/26 04:26:45;;;;;;;21.90;4.18;;;12.20;99.90;;;;;;4115360;28;20054;-60
2023/12/26 04:28:47;;;;;;;17.38;3.85;;;12.20;99.90;;;;;;4115674;28;20142;-61
2023/12/26 04:30:49;;;;;;;18.30;3.58;;;12.10;99.90;;;;;;4115339;28;20097;-62
2023/12/26 04:32:51;;;;;;;21.73;3.58;;;12.10;99.90;;;;;;4115489;28;20046;-60
2023/12/26 04:34:55;;;;;;;18.85;3.83;;;12.10;99.90;;;;;;4115252;28;20089;-60
2023/12/26 04:36:57;;;;;;;17.63;3.90;;;12.10;99.90;;;;;;4115139;28;20057;-60
2023/12/26 04:38:59;;;;;;;18.48;3.63;;;12.10;99.90;;;;;;4115432;28;20043;-60
2023/12/26 04:41:02;;;;;;;19.30;3.72;;;12.10;99.90;;;;;;4115436;28;20058;-60
2023/12/26 04:43:08;;;;;;;20.45;3.95;;;12.10;99.90;;;;;;4115110;28;20067;-61
2023/12/26 04:45:11;;;;;;;22.00;4.47;;;12.20;99.90;;;;;;4115492;28;20490;-61
2023/12/26 04:47:14;;;;;;;22.10;4.35;;;12.20;99.90;;;;;;4115247;28;20074;-60
2023/12/26 04:49:16;;;;;;;17.35;4.00;;;12.10;99.90;;;;;;4115151;28;20155;-61
2023/12/26 04:51:20;;;;;;;20.80;3.97;;;12.10;99.90;;;;;;4114896;28;20487;-61
2023/12/26 04:53:24;;;;;;;15.77;2.47;;;12.10;99.90;;;;;;4115486;28;20074;-60
2023/12/26 04:55:26;;;;;;;18.80;4.32;;;12.10;99.90;;;;;;4115377;28;20527;-61
2023/12/26 04:57:29;;;;;;;18.67;3.65;;;12.20;99.90;;;;;;4115215;28;20047;-61
2023/12/26 04:59:31;;;;;;;19.08;4.03;;;12.20;99.90;;;;;;4115341;28;20126;-62
2023/12/26 05:01:39;;;;;;;20.02;3.50;;;12.20;99.90;;;;;;4115565;28;20047;-59
2023/12/26 05:03:42;;;;;;;20.10;4.40;;;12.10;99.90;;;;;;4115217;28;20057;-60
2023/12/26 05:05:44;;;;;;;13.48;3.30;;;12.10;99.90;;;;;;4115194;28;20107;-60
2023/12/26 05:07:48;;;;;;;21.83;3.97;;;12.20;99.90;;;;;;4117549;28;20145;-60
2023/12/26 05:09:50;;;;;;;20.13;3.33;;;12.10;99.90;;;;;;4128354;28;20046;-60
2023/12/26 05:11:52;;;;;;;16.15;3.55;;;12.10;99.90;;;;;;4134388;28;20065;-60
2023/12/26 05:13:54;;;;;;;16.63;3.83;;;12.10;99.90;;;;;;4134147;28;20545;-60
2023/12/26 05:15:56;;;;;;;21.13;4.28;;;12.10;99.90;;;;;;4134534;28;20046;-64
2023/12/26 05:17:58;;;;;;;20.30;3.22;;;12.20;99.90;;;;;;4134444;28;20109;-60
2023/12/26 05:20:01;;;;;;;13.60;3.28;;;12.20;99.90;;;;;;4134460;28;20054;-64
2023/12/26 05:22:22;;;;;;;16.98;3.75;;;12.20;99.90;;;;;;4134517;28;20050;-64
2023/12/26 05:24:25;;;;;;;23.58;4.22;;;12.20;99.90;;;;;;4134802;28;20153;-60
2023/12/26 05:26:28;;;;;;;16.52;3.13;;;12.10;99.90;;;;;;4134671;28;20081;-61
2023/12/26 05:28:30;;;;;;;18.73;3.78;;;12.20;99.90;;;;;;4134520;28;20409;-60
2023/12/26 05:30:32;;;;;;;17.85;3.65;;;12.10;99.90;;;;;;4116873;28;20051;-60
2023/12/26 05:32:34;;;;;;;16.63;3.33;;;12.20;99.90;;;;;;4133913;28;20102;-60
2023/12/26 05:34:39;;;;;;;16.50;3.75;;;12.20;99.90;;;;;;4133914;28;20456;-60
2023/12/26 05:36:41;;;;;;;17.95;3.50;;;12.20;99.90;;;;;;4134227;28;20097;-60
2023/12/26 05:38:44;;;;;;;18.83;3.50;;;12.20;99.90;;;;;;4133937;28;20097;-61
2023/12/26 05:40:47;;;;;;;11.85;3.10;;;12.20;99.90;;;;;;4134185;28;20089;-63
2023/12/26 05:42:49;;;;;;;17.77;3.38;;;12.20;99.90;;;;;;4134216;28;20146;-60
2023/12/26 05:44:55;;;;;;;18.95;4.25;;;12.10;99.90;;;;;;4134297;28;20518;-60
2023/12/26 05:46:58;;;;;;;18.95;4.93;;;12.20;99.90;;;;;;4134105;28;20058;-60
2023/12/26 05:49:00;;;;;;;14.05;2.83;;;12.20;99.90;;;;;;4133989;28;20129;-60
2023/12/26 05:51:05;;;;;;;20.73;3.63;;;12.20;99.90;;;;;;4133856;28;20117;-61
2023/12/26 05:53:07;;;;;;;17.25;3.42;;;12.20;99.90;;;;;;4134115;28;20074;-60
2023/12/26 05:55:09;;;;;;;13.05;3.05;;;12.20;99.90;;;;;;4133755;28;20050;-60
2023/12/26 05:57:12;;;;;;;15.70;3.58;;;12.20;99.90;;;;;;4133850;28;20474;-60
2023/12/26 05:59:15;;;;;;;16.73;3.42;;;12.20;99.90;;;;;;4133717;28;20046;-60
2023/12/26 06:01:17;;;;;;;16.52;3.30;;;12.20;99.90;;;;;;4133745;28;20129;-61
2023/12/26 06:03:19;;;;;;;11.52;2.95;;;12.20;99.90;;;;;;4133577;28;20417;-60
2023/12/26 06:05:21;;;;;;;16.60;3.53;;;12.20;99.90;;;;;;4133094;28;20109;-60
2023/12/26 06:07:24;;;;;;;14.90;3.15;;;12.20;99.90;;;;;;4133506;28;20113;-60
2023/12/26 06:09:27;;;;;;;16.75;3.28;;;12.20;99.90;;;;;;4133612;28;20540;-60
2023/12/26 06:11:29;;;;;;;17.52;3.10;;;12.20;99.90;;;;;;4133807;28;20077;-60
2023/12/26 06:13:32;;;;;;;18.88;3.45;;;12.20;99.90;;;;;;4133510;28;20053;-60
2023/12/26 06:15:34;;;;;;;16.60;3.33;;;12.30;99.90;;;;;;4133503;28;20070;-60
2023/12/26 06:17:37;;;;;;;15.18;3.03;;;12.20;99.90;;;;;;4132749;28;20051;-60
2023/12/26 06:19:40;;;;;;;25.42;4.45;;;12.20;99.90;;;;;;4133069;28;20042;-60
2023/12/26 06:21:42;;;;;;;24.35;4.10;;;12.30;99.90;;;;;;4133444;28;20097;-68
2023/12/26 06:23:44;;;;;;;18.92;3.60;;;12.20;99.90;;;;;;4133767;28;20047;-64
2023/12/26 06:25:46;;;;;;;22.02;3.50;;;12.20;99.90;;;;;;4133674;28;20410;-60
2023/12/26 06:27:48;;;;;;;18.10;3.55;;;12.20;99.90;;;;;;4133286;28;20133;-59
2023/12/26 06:29:52;;;;;;;16.02;3.17;;;12.20;99.90;;;;;;4133031;28;20070;-60
2023/12/26 06:31:54;;;;;;;15.13;4.05;;;12.10;99.90;;;;;;4133010;28;20109;-60
2023/12/26 06:33:59;;;;;;;15.23;3.47;;;12.20;99.90;;;;;;4132874;28;20605;-60
2023/12/26 06:36:01;;;;;;;17.35;3.97;;;12.20;99.90;;;;;;4132965;28;20073;-59
2023/12/26 06:38:11;;;;;;;21.25;4.65;;;12.10;99.90;;;;;;4133262;28;20100;-59
2023/12/26 06:40:14;;;;;;;16.77;3.45;;;12.20;99.90;;;;;;4132866;28;20050;-61
2023/12/26 06:42:16;;;;;;;18.23;3.42;;;12.20;99.90;;;;;;4133143;28;20061;-60
2023/12/26 06:44:18;;;;;;;22.00;4.43;;;12.20;99.90;;;;;;4132833;28;20129;-60
2023/12/26 06:46:22;;;;;;;17.20;3.75;;;12.20;99.90;;;;;;4133044;28;20046;-59
2023/12/26 06:48:24;;;;;;;19.70;4.13;;;12.20;99.90;;;;;;4132651;28;20183;-61
2023/12/26 06:50:27;;;;;;;25.02;4.32;;;12.20;99.90;;;;;;4132972;28;20526;-60
2023/12/26 06:52:29;;;;;;;17.65;3.60;;;12.20;99.90;;;;;;4132511;28;20061;-59
2023/12/26 06:54:33;;;;;;;25.27;3.40;;;12.20;99.90;;;;;;4132590;28;20043;-60
2023/12/26 06:56:35;;;;;;;16.25;4.03;;;12.10;99.90;;;;;;4132672;28;20217;-59
2023/12/26 06:58:37;;;;;;;21.83;3.47;;;12.10;99.90;;;;;;4132895;28;20050;-61
2023/12/26 07:00:39;;;;;;;18.92;3.72;;;12.10;99.90;;;;;;4132546;28;20046;-60
2023/12/26 07:02:42;;;;;;;19.27;3.30;;;12.10;99.90;;;;;;4132345;28;20039;-60
2023/12/26 07:04:45;;;;;;;11.55;2.95;;;12.20;99.90;;;;;;4132577;28;20057;-60
2023/12/26 07:06:47;;;;;;;16.35;3.55;;;12.20;99.90;;;;;;4132733;28;20050;-61
2023/12/26 07:08:50;;;;;;;16.08;3.65;;;12.20;99.90;;;;;;4132503;28;20382;-61
2023/12/26 07:10:52;;;;;;;16.40;3.45;;;12.20;99.90;;;;;;4132675;28;20053;-61
2023/12/26 07:12:54;;;;;;;19.73;3.75;;;12.20;99.90;;;;;;4132255;28;20100;-60
2023/12/26 07:14:57;;;;;;;15.43;2.97;;;12.10;99.90;;;;;;4132686;28;20053;-61
2023/12/26 07:16:59;;;;;;;24.35;4.53;;;12.10;99.90;;;;;;4132841;28;20061;-61
2023/12/26 07:19:03;;;;;;;22.77;4.47;;;12.20;99.90;;;;;;4134070;28;20497;-62
2023/12/26 07:21:05;;;;;;;16.63;3.92;;;12.20;99.90;;;;;;4134313;28;20074;-66
2023/12/26 07:23:08;;;;;;;19.90;3.58;;;12.20;99.90;;;;;;4133039;28;20520;-60
2023/12/26 07:25:10;;;;;;;17.17;3.55;;;12.20;99.90;;;;;;4132283;28;20504;-61
2023/12/26 07:27:12;;;;;;;19.80;3.63;;;12.20;99.90;;;;;;4132427;28;20042;-60
2023/12/26 07:29:14;;;;;;;19.15;4.00;;;12.20;99.90;;;;;;4131972;28;20046;-61
2023/12/26 07:31:20;;;;;;;18.10;3.83;;;12.20;99.90;;;;;;4131918;28;20050;-61
2023/12/26 07:33:22;;;;;;;14.73;3.42;;;12.10;99.90;;;;;;4132142;28;20050;-60
2023/12/26 07:35:29;;;;;;;17.92;3.63;;;12.10;99.90;;;;;;4132180;28;20449;-61
2023/12/26 07:37:32;;;;;;;16.33;2.90;;;12.20;99.90;;;;;;4132381;28;20046;-60
2023/12/26 07:39:34;;;;;;;17.35;3.63;;;12.10;99.90;;;;;;4132096;28;20046;-60
2023/12/26 07:41:36;;;;;;;16.05;3.08;;;12.20;99.90;;;;;;4132070;28;20126;-61
2023/12/26 07:43:38;;;;;;;20.30;4.00;;;12.20;99.90;;;;;;4132211;28;20481;-61
2023/12/26 07:45:40;;;;;;;19.13;4.65;;;12.20;99.90;;;;;;4131630;28;20057;-60
2023/12/26 07:47:43;;;;;;;12.85;3.13;;;12.00;99.90;;;;;;4132049;28;20069;-60
2023/12/26 07:49:46;;;;;;;20.73;3.58;;;12.10;99.90;;;;;;4131976;28;20074;-60
2023/12/26 07:51:50;;;;;;;14.63;3.10;;;12.10;99.90;;;;;;4132056;28;20117;-60
2023/12/26 07:53:52;;;;;;;15.45;3.10;;;12.10;99.90;;;;;;4131663;28;20417;-61
2023/12/26 07:55:54;;;;;;;18.27;3.47;;;12.10;99.90;;;;;;4131998;28;20053;-61
2023/12/26 07:57:57;;;;;;;17.42;3.80;;;12.10;99.90;;;;;;4132214;28;20058;-62
2023/12/26 07:59:59;;;;;;;16.17;3.28;;;12.10;99.90;;;;;;4114562;28;20054;-60
2023/12/26 08:02:02;;;;;;;17.05;3.67;;;12.20;99.90;;;;;;4131777;28;20420;-60
2023/12/26 08:04:04;;;;;;;16.77;3.42;;;12.20;99.90;;;;;;4131780;28;20043;-61
2023/12/26 08:06:06;;;;;;;18.35;3.50;;;12.20;99.90;;;;;;4131813;28;20073;-60
2023/12/26 08:08:10;;;;;;;19.25;3.53;;;12.20;99.90;;;;;;4131640;28;20058;-61
2023/12/26 08:10:12;;;;;;;12.73;2.90;;;12.20;99.90;;;;;;4131468;28;20149;-60
2023/12/26 08:12:14;;;;;;;12.73;3.80;;;12.20;99.90;;;;;;4114478;28;20307;-61
2023/12/26 08:14:17;;;;;;;18.08;3.97;;;12.20;99.90;;;;;;4131244;28;20050;-60
2023/12/26 08:16:20;;;;;;;17.75;3.20;;;12.20;99.90;;;;;;4131672;28;20096;-60
2023/12/26 08:18:23;;;;;;;15.07;3.08;;;12.20;99.90;;;;;;4131507;28;20054;-61
2023/12/26 08:20:26;;;;;;;22.73;4.00;;;12.20;99.90;;;;;;4131755;28;20149;-61
2023/12/26 08:22:28;;;;;;;14.45;3.15;;;12.20;99.90;;;;;;4131617;28;20133;-60
2023/12/26 08:24:31;;;;;;;17.30;3.15;;;12.20;99.90;;;;;;4114190;28;20130;-60
2023/12/26 08:26:33;;;;;;;20.48;3.80;;;12.20;99.90;;;;;;4131411;28;20410;-65
2023/12/26 08:28:36;;;;;;;16.98;3.53;;;12.20;99.90;;;;;;4131129;28;20052;-60
2023/12/26 08:30:38;;;;;;;19.85;3.55;;;12.20;99.90;;;;;;4131609;28;20081;-60
2023/12/26 08:32:41;;;;;;;20.58;3.50;;;12.10;99.90;;;;;;4131461;28;20482;-60
2023/12/26 08:34:44;;;;;;;17.70;2.67;;;12.10;99.90;;;;;;4131762;28;20125;-60
2023/12/26 08:36:46;;;;;;;21.05;3.85;;;12.10;99.90;;;;;;4131258;28;20058;-59
2023/12/26 08:38:48;;;;;;;20.90;3.20;;;12.20;99.90;;;;;;4131236;28;20074;-60
2023/12/26 08:40:52;;;;;;;14.40;3.28;;;12.10;99.90;;;;;;4130980;28;20105;-60
2023/12/26 08:42:54;;;;;;;17.08;3.45;;;12.20;99.90;;;;;;4131343;28;20101;-63
2023/12/26 08:44:56;;;;;;;17.52;3.47;;;12.20;99.90;;;;;;4131036;28;20054;-66
2023/12/26 08:47:01;;;;;;;12.68;2.72;;;12.20;99.90;;;;;;4131440;28;20050;-60
2023/12/26 08:49:03;;;;;;;15.73;3.30;;;12.20;99.90;;;;;;4132023;28;20042;-67
2023/12/26 08:51:06;;;;;;;14.00;3.08;;;12.20;99.90;;;;;;4115433;28;20046;-61
2023/12/26 08:53:08;;;;;;;9.68;2.97;;;12.20;99.90;;;;;;4132105;28;20157;-60
2023/12/26 08:55:10;;;;;;;13.93;3.35;;;12.20;99.90;;;;;;4131400;28;20512;-60
2023/12/26 08:57:14;;;;;;;15.13;3.30;;;12.20;99.90;;;;;;4131503;28;20042;-59
2023/12/26 08:59:17;;;;;;;11.82;3.03;;;12.20;99.90;;;;;;4130929;28;20382;-60
2023/12/26 09:01:20;;;;;;;14.27;3.72;;;12.20;99.90;;;;;;4113956;28;20320;-61
2023/12/26 09:03:22;;;;;;;18.35;3.90;;;12.20;99.90;;;;;;4131375;28;20046;-60
2023/12/26 09:05:25;;;;;;;18.05;3.22;;;12.20;99.90;;;;;;4131190;28;20059;-60
2023/12/26 09:07:27;;;;;;;13.13;3.13;;;12.20;99.90;;;;;;4131445;28;20104;-61
2023/12/26 09:09:29;;;;;;;10.57;2.75;;;12.10;99.90;;;;;;4131603;28;20051;-61
2023/12/26 09:11:32;;;;;;;12.80;2.95;;;12.20;99.90;;;;;;4131474;28;20046;-61
2023/12/26 09:13:35;;;;;;;14.95;3.15;;;12.20;99.90;;;;;;4130621;28;20105;-60
2023/12/26 09:15:37;;;;;;;11.18;3.10;;;12.20;99.90;;;;;;4131151;28;20054;-60
2023/12/26 09:17:39;;;;;;;11.05;2.88;;;12.10;99.90;;;;;;4131145;28;20042;-61
2023/12/26 09:19:42;;;;;;;18.20;3.05;;;12.10;99.90;;;;;;4131245;28;20505;-61
2023/12/26 09:21:44;;;;;;;14.38;2.85;;;12.10;99.90;;;;;;4131180;28;20073;-61
2023/12/26 09:23:46;;;;;;;13.80;2.47;;;12.10;99.90;;;;;;4131204;28;20046;-60
2023/12/26 09:25:48;;;;;;;10.45;2.72;;;12.20;99.90;;;;;;4131436;28;20054;-60
2023/12/26 09:27:50;;;;;;;15.15;3.30;;;12.10;99.90;;;;;;4130832;28;20051;-60
2023/12/26 09:29:54;;;;;;;11.90;2.53;;;12.10;99.90;;;;;;4130964;28;20398;-60
2023/12/26 09:31:56;;;;;;;19.15;3.25;;;12.00;99.90;;;;;;4130994;28;20413;-60
2023/12/26 09:33:58;;;;;;;10.70;2.75;;;12.00;99.90;;;;;;4113896;28;20054;-60
2023/12/26 09:36:01;;;;;;;15.30;2.53;;;12.10;99.90;;;;;;4130958;28;20050;-60
2023/12/26 09:38:03;;;;;;;16.70;3.25;;;12.20;99.90;;;;;;4131047;28;20066;-60
2023/12/26 09:40:08;;;;;;;16.55;2.67;;;12.10;99.90;;;;;;4130915;28;20050;-60
2023/12/26 09:42:13;;;;;;;10.82;2.53;;;12.20;99.90;;;;;;4130586;28;20253;-60
2023/12/26 09:44:16;;;;;;;10.05;2.40;;;12.20;99.90;;;;;;4130895;28;20050;-64
2023/12/26 09:46:20;;;;;;;13.38;2.83;;;12.20;99.90;;;;;;4131282;28;20046;-60
2023/12/26 09:48:22;;;;;;;14.55;2.72;;;12.20;99.90;;;;;;4131104;28;20383;-60
2023/12/26 09:50:25;;;;;;;13.85;2.55;;;12.20;99.90;;;;;;4130952;28;20050;-61
2023/12/26 09:52:29;;;;;;;14.20;2.83;;;12.20;99.90;;;;;;4131012;28;20410;-61
2023/12/26 09:54:32;;;;;;;8.95;2.38;;;12.20;99.90;;;;;;4133662;28;20553;-60
2023/12/26 09:56:38;;;;;;;9.45;2.60;;;12.10;99.90;;;;;;4133575;28;20043;-59
2023/12/26 09:58:43;;;;;;;15.88;2.83;;;12.20;99.90;;;;;;4116549;28;20047;-60
2023/12/26 10:00:48;;;;;;;13.48;3.35;;;12.20;99.90;;;;;;4133837;28;20046;-60
2023/12/26 10:02:52;;;;;;;10.38;2.42;;;12.30;99.90;;;;;;4133790;28;20070;-60
2023/12/26 10:04:55;;;;;;;9.40;2.38;;;12.30;99.90;;;;;;4133645;28;20074;-60
2023/12/26 10:06:57;;;;;;;8.70;2.90;;;12.30;99.90;;;;;;4133682;28;20057;-61
2023/12/26 10:09:00;;;;;;;7.43;2.33;;;12.20;99.90;;;;;;4133413;28;20089;-61
2023/12/26 10:11:03;;;;;;;10.15;2.20;;;12.20;99.90;;;;;;4133370;28;20101;-61
2023/12/26 10:13:05;;;;;;;8.80;2.20;;;12.30;99.90;;;;;;4133514;28;20133;-60
2023/12/26 10:15:09;;;;;;;12.45;2.78;;;12.30;99.90;;;;;;4133633;28;20088;-62
2023/12/26 10:17:12;;;;;;;8.05;2.03;;;12.30;99.90;;;;;;4133660;28;20578;-61
2023/12/26 10:19:16;;;;;;;10.95;2.83;;;12.40;99.90;;;;;;4133866;28;20053;-60
2023/12/26 10:21:18;;;;;;;14.43;2.58;;;12.40;99.90;;;;;;4133601;28;20055;-60
2023/12/26 10:23:20;;;;;;;11.70;2.63;;;12.20;99.90;;;;;;4133535;28;20054;-59
2023/12/26 10:25:23;;;;;;;12.98;2.97;;;12.30;99.90;;;;;;4132951;28;20120;-60
2023/12/26 10:27:25;;;;;;;10.43;2.50;;;12.30;99.90;;;;;;4133255;28;20526;-60
2023/12/26 10:29:27;;;;;;;12.25;3.33;;;12.40;99.90;;;;;;4133068;28;20046;-60
2023/12/26 10:31:29;;;;;;;13.45;2.22;;;12.30;99.90;;;;;;4133351;28;20052;-60